sensor_id;sensor_type;location;lat;lon;timestamp;pressure;altitude;pressure_sealevel;temperature
62845;BMP280;48929;47.910;20.390;2023-03-20T00:02:24;99472.66;;;6.11
62845;BMP280;48929;47.910;20.390;2023-03-20T00:04:53;99470.66;;;6.13
62845;BMP280;48929;47.910;20.390;2023-03-20T00:07:25;99472.19;;;6.14
62845;BMP280;48929;47.910;20.390;2023-03-20T00:09:53;99469.09;;;6.12
62845;BMP280;48929;47.910;20.390;2023-03-20T02:17:31;99419.84;;;5.22
62845;BMP280;48929;47.910;20.390;2023-03-20T02:20:06;99417.00;;;5.19
62845;BMP280;48929;47.910;20.390;2023-03-20T02:22:53;99414.34;;;5.14
62845;BMP280;48929;47.910;20.390;2023-03-20T02:28:58;99412.63;;;5.03
62845;BMP280;48929;47.910;20.390;2023-03-20T02:32:00;99417.59;;;4.92
62845;BMP280;48929;47.910;20.390;2023-03-20T02:35:00;99415.88;;;4.81
62845;BMP280;48929;47.910;20.390;2023-03-20T02:40:44;99414.16;;;4.70
62845;BMP280;48929;47.910;20.390;2023-03-20T02:43:23;99410.53;;;4.66
62845;BMP280;48929;47.910;20.390;2023-03-20T02:45:58;99409.88;;;4.59
62845;BMP280;48929;47.910;20.390;2023-03-20T02:48:38;99406.78;;;4.57
62845;BMP280;48929;47.910;20.390;2023-03-20T02:51:16;99399.59;;;4.54
62845;BMP280;48929;47.910;20.390;2023-03-20T02:53:51;99405.81;;;4.46
62845;BMP280;48929;47.910;20.390;2023-03-20T02:56:25;99400.09;;;4.39
62845;BMP280;48929;47.910;20.390;2023-03-20T02:59:03;99393.91;;;4.35
62845;BMP280;48929;47.910;20.390;2023-03-20T03:01:40;99391.03;;;4.32
62845;BMP280;48929;47.910;20.390;2023-03-20T03:04:11;99387.94;;;4.30
62845;BMP280;48929;47.910;20.390;2023-03-20T03:06:45;99380.81;;;4.32
62845;BMP280;48929;47.910;20.390;2023-03-20T03:09:17;99385.38;;;4.30
62845;BMP280;48929;47.910;20.390;2023-03-20T03:11:52;99383.28;;;4.27
62845;BMP280;48929;47.910;20.390;2023-03-20T03:14:29;99387.03;;;4.24
62845;BMP280;48929;47.910;20.390;2023-03-20T03:17:01;99380.63;;;4.21
62845;BMP280;48929;47.910;20.390;2023-03-20T03:19:34;99385.16;;;4.19
62845;BMP280;48929;47.910;20.390;2023-03-20T03:22:04;99379.72;;;4.16
62845;BMP280;48929;47.910;20.390;2023-03-20T03:24:35;99385.13;;;4.14
62845;BMP280;48929;47.910;20.390;2023-03-20T03:27:14;99376.69;;;4.14
62845;BMP280;48929;47.910;20.390;2023-03-20T03:29:49;99380.22;;;4.13
62845;BMP280;48929;47.910;20.390;2023-03-20T03:32:26;99387.31;;;4.11
62845;BMP280;48929;47.910;20.390;2023-03-20T03:34:56;99383.13;;;4.05
62845;BMP280;48929;47.910;20.390;2023-03-20T03:37:38;99383.78;;;4.00
62845;BMP280;48929;47.910;20.390;2023-03-20T03:40:18;99384.22;;;3.97
62845;BMP280;48929;47.910;20.390;2023-03-20T03:42:56;99378.81;;;3.94
62845;BMP280;48929;47.910;20.390;2023-03-20T03:45:31;99378.75;;;3.89
62845;BMP280;48929;47.910;20.390;2023-03-20T03:48:04;99385.63;;;3.88
62845;BMP280;48929;47.910;20.390;2023-03-20T03:50:37;99388.59;;;3.85
62845;BMP280;48929;47.910;20.390;2023-03-20T03:53:17;99385.06;;;3.86
62845;BMP280;48929;47.910;20.390;2023-03-20T03:55:49;99386.06;;;3.85
62845;BMP280;48929;47.910;20.390;2023-03-20T03:58:24;99389.03;;;3.82
62845;BMP280;48929;47.910;20.390;2023-03-20T04:00:57;99381.06;;;3.78
62845;BMP280;48929;47.910;20.390;2023-03-20T04:03:30;99393.03;;;3.78
62845;BMP280;48929;47.910;20.390;2023-03-20T04:06:02;99389.47;;;3.79
62845;BMP280;48929;47.910;20.390;2023-03-20T04:08:32;99388.69;;;3.78
62845;BMP280;48929;47.910;20.390;2023-03-20T04:11:01;99396.47;;;3.83
62845;BMP280;48929;47.910;20.390;2023-03-20T04:13:32;99396.47;;;3.83
62845;BMP280;48929;47.910;20.390;2023-03-20T04:16:00;99396.59;;;3.89
62845;BMP280;48929;47.910;20.390;2023-03-20T04:18:29;99392.78;;;3.91
62845;BMP280;48929;47.910;20.390;2023-03-20T04:20:58;99392.56;;;3.93
62845;BMP280;48929;47.910;20.390;2023-03-20T04:23:26;99390.78;;;3.93
62845;BMP280;48929;47.910;20.390;2023-03-20T04:25:55;99382.91;;;3.95
62845;BMP280;48929;47.910;20.390;2023-03-20T04:28:24;99388.88;;;4.00
62845;BMP280;48929;47.910;20.390;2023-03-20T04:30:55;99386.44;;;4.05
62845;BMP280;48929;47.910;20.390;2023-03-20T04:33:29;99389.88;;;4.11
62845;BMP280;48929;47.910;20.390;2023-03-20T04:35:57;99384.13;;;4.15
62845;BMP280;48929;47.910;20.390;2023-03-20T04:38:26;99380.84;;;4.20
62845;BMP280;48929;47.910;20.390;2023-03-20T04:40:55;99382.28;;;4.28
62845;BMP280;48929;47.910;20.390;2023-03-20T04:43:24;99382.94;;;4.35
62845;BMP280;48929;47.910;20.390;2023-03-20T04:45:55;99383.78;;;4.40
62845;BMP280;48929;47.910;20.390;2023-03-20T04:48:24;99383.31;;;4.43
62845;BMP280;48929;47.910;20.390;2023-03-20T04:50:53;99378.06;;;4.50
62845;BMP280;48929;47.910;20.390;2023-03-20T04:53:22;99388.63;;;4.53
62845;BMP280;48929;47.910;20.390;2023-03-20T04:55:53;99387.91;;;4.58
62845;BMP280;48929;47.910;20.390;2023-03-20T04:58:22;99391.00;;;4.60
62845;BMP280;48929;47.910;20.390;2023-03-20T05:00:50;99390.09;;;4.66
62845;BMP280;48929;47.910;20.390;2023-03-20T05:03:21;99387.41;;;4.73
62845;BMP280;48929;47.910;20.390;2023-03-20T05:05:50;99394.34;;;4.77
62845;BMP280;48929;47.910;20.390;2023-03-20T05:08:21;99403.88;;;4.82
62845;BMP280;48929;47.910;20.390;2023-03-20T05:10:50;99407.06;;;4.89
62845;BMP280;48929;47.910;20.390;2023-03-20T05:13:20;99401.56;;;4.97
62845;BMP280;48929;47.910;20.390;2023-03-20T05:15:48;99410.09;;;5.03
62845;BMP280;48929;47.910;20.390;2023-03-20T05:18:17;99408.63;;;5.07
62845;BMP280;48929;47.910;20.390;2023-03-20T05:20:48;99405.69;;;5.15
62845;BMP280;48929;47.910;20.390;2023-03-20T05:23:17;99414.72;;;5.22
62845;BMP280;48929;47.910;20.390;2023-03-20T05:25:45;99408.22;;;5.31
62845;BMP280;48929;47.910;20.390;2023-03-20T05:28:15;99408.84;;;5.39
62845;BMP280;48929;47.910;20.390;2023-03-20T09:24:22;99366.06;;;15.33
62845;BMP280;48929;47.910;20.390;2023-03-20T09:26:50;99377.53;;;15.41
62845;BMP280;48929;47.910;20.390;2023-03-20T09:29:20;99367.13;;;15.49
62845;BMP280;48929;47.910;20.390;2023-03-20T09:31:49;99388.63;;;15.59
62845;BMP280;48929;47.910;20.390;2023-03-20T09:34:20;99368.00;;;15.71
62845;BMP280;48929;47.910;20.390;2023-03-20T09:36:50;99369.97;;;15.82
62845;BMP280;48929;47.910;20.390;2023-03-20T09:39:18;99365.66;;;15.95
62845;BMP280;48929;47.910;20.390;2023-03-20T09:41:50;99368.50;;;16.11
62845;BMP280;48929;47.910;20.390;2023-03-20T09:44:37;99369.53;;;16.27
62845;BMP280;48929;47.910;20.390;2023-03-20T09:47:16;99355.84;;;16.38
62845;BMP280;48929;47.910;20.390;2023-03-20T09:50:00;99358.72;;;16.46
62845;BMP280;48929;47.910;20.390;2023-03-20T09:52:33;99357.31;;;16.57
62845;BMP280;48929;47.910;20.390;2023-03-20T09:55:05;99342.44;;;16.57
62845;BMP280;48929;47.910;20.390;2023-03-20T09:57:38;99334.44;;;16.62
62845;BMP280;48929;47.910;20.390;2023-03-20T10:00:12;99339.41;;;16.76
62845;BMP280;48929;47.910;20.390;2023-03-20T10:02:47;99317.31;;;16.82
62845;BMP280;48929;47.910;20.390;2023-03-20T10:05:20;99333.31;;;16.93
62845;BMP280;48929;47.910;20.390;2023-03-20T10:07:53;99332.94;;;17.03
62845;BMP280;48929;47.910;20.390;2023-03-20T10:10:27;99329.13;;;17.00
62845;BMP280;48929;47.910;20.390;2023-03-20T10:16:07;99314.59;;;16.99
62845;BMP280;48929;47.910;20.390;2023-03-20T10:18:44;99310.25;;;17.03
62845;BMP280;48929;47.910;20.390;2023-03-20T10:21:20;99311.81;;;17.16
62845;BMP280;48929;47.910;20.390;2023-03-20T10:23:56;99309.00;;;17.21
62845;BMP280;48929;47.910;20.390;2023-03-20T10:26:27;99325.16;;;17.36
62845;BMP280;48929;47.910;20.390;2023-03-20T10:28:57;99330.28;;;17.56
62845;BMP280;48929;47.910;20.390;2023-03-20T10:31:38;99303.69;;;17.63
62845;BMP280;48929;47.910;20.390;2023-03-20T10:34:25;99305.53;;;17.62
62845;BMP280;48929;47.910;20.390;2023-03-20T10:37:09;99306.19;;;17.59
62845;BMP280;48929;47.910;20.390;2023-03-20T10:39:50;99307.47;;;17.65
62845;BMP280;48929;47.910;20.390;2023-03-20T10:42:26;99313.91;;;17.80
62845;BMP280;48929;47.910;20.390;2023-03-20T10:44:59;99306.31;;;17.87
62845;BMP280;48929;47.910;20.390;2023-03-20T10:47:34;99315.09;;;17.95
62845;BMP280;48929;47.910;20.390;2023-03-20T10:50:06;99286.31;;;17.91
62845;BMP280;48929;47.910;20.390;2023-03-20T10:52:38;99313.91;;;17.92
62845;BMP280;48929;47.910;20.390;2023-03-20T10:55:11;99298.50;;;17.87
62845;BMP280;48929;47.910;20.390;2023-03-20T10:57:46;99315.56;;;17.85
62845;BMP280;48929;47.910;20.390;2023-03-20T11:00:18;99300.97;;;17.71
62845;BMP280;48929;47.910;20.390;2023-03-20T11:02:50;99306.84;;;17.81
62845;BMP280;48929;47.910;20.390;2023-03-20T11:05:22;99307.84;;;17.88
62845;BMP280;48929;47.910;20.390;2023-03-20T11:08:00;99281.53;;;17.93
62845;BMP280;48929;47.910;20.390;2023-03-20T11:10:30;99286.00;;;17.93
62845;BMP280;48929;47.910;20.390;2023-03-20T11:13:13;99286.09;;;17.96
62845;BMP280;48929;47.910;20.390;2023-03-20T11:15:42;99296.63;;;18.00
62845;BMP280;48929;47.910;20.390;2023-03-20T11:18:14;99297.28;;;18.09
62845;BMP280;48929;47.910;20.390;2023-03-20T11:20:47;99294.34;;;18.22
62845;BMP280;48929;47.910;20.390;2023-03-20T11:23:18;99282.03;;;18.35
62845;BMP280;48929;47.910;20.390;2023-03-20T11:25:51;99273.06;;;18.48
62845;BMP280;48929;47.910;20.390;2023-03-20T11:28:31;99378.34;;;19.20
62845;BMP280;48929;47.910;20.390;2023-03-20T11:31:03;99282.22;;;18.70
62845;BMP280;48929;47.910;20.390;2023-03-20T11:33:38;99275.94;;;18.71
62845;BMP280;48929;47.910;20.390;2023-03-20T11:36:20;99281.47;;;18.69
62845;BMP280;48929;47.910;20.390;2023-03-20T11:38:49;99272.03;;;18.65
62845;BMP280;48929;47.910;20.390;2023-03-20T11:41:23;99261.84;;;18.60
62845;BMP280;48929;47.910;20.390;2023-03-20T11:43:52;99263.72;;;18.59
62845;BMP280;48929;47.910;20.390;2023-03-20T11:46:22;99251.50;;;18.63
62845;BMP280;48929;47.910;20.390;2023-03-20T11:49:05;99256.56;;;18.72
62845;BMP280;48929;47.910;20.390;2023-03-20T11:51:35;99246.88;;;18.72
62845;BMP280;48929;47.910;20.390;2023-03-20T11:54:05;99238.88;;;18.65
62845;BMP280;48929;47.910;20.390;2023-03-20T11:56:35;99231.31;;;18.48
62845;BMP280;48929;47.910;20.390;2023-03-20T11:59:12;99246.53;;;18.46
62845;BMP280;48929;47.910;20.390;2023-03-20T12:01:46;99252.06;;;18.57
62845;BMP280;48929;47.910;20.390;2023-03-20T12:04:18;99261.59;;;18.65
62845;BMP280;48929;47.910;20.390;2023-03-20T12:42:23;99231.38;;;18.36
62845;BMP280;48929;47.910;20.390;2023-03-20T12:45:00;99237.38;;;18.37
62845;BMP280;48929;47.910;20.390;2023-03-20T12:50:30;99234.97;;;18.32
62845;BMP280;48929;47.910;20.390;2023-03-20T12:53:10;99235.28;;;18.30
62845;BMP280;48929;47.910;20.390;2023-03-20T12:55:48;99234.00;;;18.24
62845;BMP280;48929;47.910;20.390;2023-03-20T12:58:25;99231.72;;;18.22
62845;BMP280;48929;47.910;20.390;2023-03-20T13:01:00;99231.50;;;18.15
62845;BMP280;48929;47.910;20.390;2023-03-20T13:03:51;99240.19;;;18.19
62845;BMP280;48929;47.910;20.390;2023-03-20T13:06:31;99233.59;;;18.22
62845;BMP280;48929;47.910;20.390;2023-03-20T13:09:34;99230.31;;;18.25
62845;BMP280;48929;47.910;20.390;2023-03-20T13:12:21;99215.63;;;18.20
62845;BMP280;48929;47.910;20.390;2023-03-20T13:14:59;99211.09;;;18.17
62845;BMP280;48929;47.910;20.390;2023-03-20T13:17:34;99216.22;;;18.14
62845;BMP280;48929;47.910;20.390;2023-03-20T13:20:19;99212.97;;;18.05
62845;BMP280;48929;47.910;20.390;2023-03-20T13:22:58;99213.31;;;18.03
62845;BMP280;48929;47.910;20.390;2023-03-20T13:25:56;99217.84;;;18.06
62845;BMP280;48929;47.910;20.390;2023-03-20T13:28:32;99206.44;;;18.11
62845;BMP280;48929;47.910;20.390;2023-03-20T13:31:13;99257.22;;;18.41
62845;BMP280;48929;47.910;20.390;2023-03-20T13:33:49;99215.19;;;18.18
62845;BMP280;48929;47.910;20.390;2023-03-20T13:36:26;99250.44;;;18.52
62845;BMP280;48929;47.910;20.390;2023-03-20T14:04:45;99215.84;;;18.15
62845;BMP280;48929;47.910;20.390;2023-03-20T14:07:28;99217.00;;;18.02
62845;BMP280;48929;47.910;20.390;2023-03-20T14:10:35;99212.41;;;17.99
62845;BMP280;48929;47.910;20.390;2023-03-20T14:13:11;99212.75;;;17.98
62845;BMP280;48929;47.910;20.390;2023-03-20T14:15:46;99220.59;;;17.98
62845;BMP280;48929;47.910;20.390;2023-03-20T14:18:16;99224.59;;;17.95
62845;BMP280;48929;47.910;20.390;2023-03-20T14:20:54;99216.91;;;17.87
62845;BMP280;48929;47.910;20.390;2023-03-20T14:23:32;99222.66;;;17.80
62845;BMP280;48929;47.910;20.390;2023-03-20T14:26:08;99221.94;;;17.80
62845;BMP280;48929;47.910;20.390;2023-03-20T14:28:47;99218.75;;;17.74
62845;BMP280;48929;47.910;20.390;2023-03-20T14:31:22;99213.31;;;17.67
62845;BMP280;48929;47.910;20.390;2023-03-20T14:33:59;99221.13;;;17.67
62845;BMP280;48929;47.910;20.390;2023-03-20T14:36:30;99219.63;;;17.66
62845;BMP280;48929;47.910;20.390;2023-03-20T14:39:19;99218.97;;;17.69
62845;BMP280;48929;47.910;20.390;2023-03-20T14:42:05;99215.75;;;17.60
62845;BMP280;48929;47.910;20.390;2023-03-20T14:44:53;99213.78;;;17.57
62845;BMP280;48929;47.910;20.390;2023-03-20T14:47:33;99218.22;;;17.56
62845;BMP280;48929;47.910;20.390;2023-03-20T14:50:09;99215.06;;;17.51
62845;BMP280;48929;47.910;20.390;2023-03-20T14:52:48;99215.38;;;17.37
62845;BMP280;48929;47.910;20.390;2023-03-20T15:18:05;99217.97;;;17.25
62845;BMP280;48929;47.910;20.390;2023-03-20T15:20:35;99220.34;;;17.18
62845;BMP280;48929;47.910;20.390;2023-03-20T15:23:06;99214.94;;;17.11
62845;BMP280;48929;47.910;20.390;2023-03-20T15:25:37;99215.09;;;17.06
62845;BMP280;48929;47.910;20.390;2023-03-20T15:28:11;99214.47;;;17.09
62845;BMP280;48929;47.910;20.390;2023-03-20T15:30:46;99219.69;;;17.09
62845;BMP280;48929;47.910;20.390;2023-03-20T15:33:18;99220.00;;;17.07
62845;BMP280;48929;47.910;20.390;2023-03-20T15:35:49;99225.97;;;17.08
62845;BMP280;48929;47.910;20.390;2023-03-20T15:38:19;99224.59;;;17.10
62845;BMP280;48929;47.910;20.390;2023-03-20T15:40:48;99229.47;;;17.24
62845;BMP280;48929;47.910;20.390;2023-03-20T16:21:35;99315.38;;;17.12
62845;BMP280;48929;47.910;20.390;2023-03-20T16:24:08;99250.50;;;16.53
62845;BMP280;48929;47.910;20.390;2023-03-20T16:26:42;99253.41;;;16.31
62845;BMP280;48929;47.910;20.390;2023-03-20T16:29:13;99259.81;;;16.04
62845;BMP280;48929;47.910;20.390;2023-03-20T16:31:47;99259.94;;;15.78
62845;BMP280;48929;47.910;20.390;2023-03-20T16:34:19;99264.91;;;15.54
62845;BMP280;48929;47.910;20.390;2023-03-20T16:36:52;99262.38;;;15.28
62845;BMP280;48929;47.910;20.390;2023-03-20T16:39:23;99267.28;;;15.04
62845;BMP280;48929;47.910;20.390;2023-03-20T16:42:02;99276.13;;;14.77
62845;BMP280;48929;47.910;20.390;2023-03-20T16:44:40;99277.28;;;14.45
62845;BMP280;48929;47.910;20.390;2023-03-20T16:47:17;99279.47;;;14.12
62845;BMP280;48929;47.910;20.390;2023-03-20T16:50:10;99282.03;;;13.73
62845;BMP280;48929;47.910;20.390;2023-03-20T16:52:44;99286.69;;;13.40
62845;BMP280;48929;47.910;20.390;2023-03-20T16:55:26;99283.53;;;13.07
62845;BMP280;48929;47.910;20.390;2023-03-20T16:57:58;99293.94;;;12.80
62845;BMP280;48929;47.910;20.390;2023-03-20T17:00:31;99292.91;;;12.54
62845;BMP280;48929;47.910;20.390;2023-03-20T17:03:08;99294.16;;;12.29
62845;BMP280;48929;47.910;20.390;2023-03-20T17:05:57;99299.00;;;12.03
62845;BMP280;48929;47.910;20.390;2023-03-20T17:08:36;99303.72;;;11.82
62845;BMP280;48929;47.910;20.390;2023-03-20T17:11:10;99296.31;;;11.62
62845;BMP280;48929;47.910;20.390;2023-03-20T17:13:40;99302.66;;;11.51
62845;BMP280;48929;47.910;20.390;2023-03-20T17:16:14;99307.00;;;11.37
62845;BMP280;48929;47.910;20.390;2023-03-20T17:18:44;99312.63;;;11.20
62845;BMP280;48929;47.910;20.390;2023-03-20T17:21:13;99316.72;;;11.02
62845;BMP280;48929;47.910;20.390;2023-03-20T17:23:42;99316.13;;;10.87
62845;BMP280;48929;47.910;20.390;2023-03-20T17:26:10;99324.81;;;10.72
62845;BMP280;48929;47.910;20.390;2023-03-20T17:28:40;99320.28;;;10.59
62845;BMP280;48929;47.910;20.390;2023-03-20T17:31:13;99320.94;;;10.46
62845;BMP280;48929;47.910;20.390;2023-03-20T17:33:43;99326.44;;;10.34
62845;BMP280;48929;47.910;20.390;2023-03-20T17:36:15;99321.41;;;10.24
62845;BMP280;48929;47.910;20.390;2023-03-20T17:38:47;99322.47;;;10.18
62845;BMP280;48929;47.910;20.390;2023-03-20T17:41:18;99324.38;;;10.07
62845;BMP280;48929;47.910;20.390;2023-03-20T17:43:47;99327.00;;;9.97
62845;BMP280;48929;47.910;20.390;2023-03-20T17:46:19;99323.72;;;9.86
62845;BMP280;48929;47.910;20.390;2023-03-20T17:48:49;99325.59;;;9.81
62845;BMP280;48929;47.910;20.390;2023-03-20T17:51:18;99321.50;;;9.75
62845;BMP280;48929;47.910;20.390;2023-03-20T17:53:47;99318.69;;;9.71
62845;BMP280;48929;47.910;20.390;2023-03-20T17:56:21;99323.84;;;9.66
62845;BMP280;48929;47.910;20.390;2023-03-20T17:58:50;99318.81;;;9.56
62845;BMP280;48929;47.910;20.390;2023-03-20T18:01:20;99321.13;;;9.47
62845;BMP280;48929;47.910;20.390;2023-03-20T18:03:49;99317.81;;;9.42
62845;BMP280;48929;47.910;20.390;2023-03-20T18:06:22;99310.41;;;9.35
62845;BMP280;48929;47.910;20.390;2023-03-20T18:08:51;99321.53;;;9.26
62845;BMP280;48929;47.910;20.390;2023-03-20T18:11:20;99317.94;;;9.11
62845;BMP280;48929;47.910;20.390;2023-03-20T18:13:49;99321.34;;;9.02
62845;BMP280;48929;47.910;20.390;2023-03-20T18:16:21;99325.47;;;8.93
62845;BMP280;48929;47.910;20.390;2023-03-20T18:18:51;99315.97;;;8.83
62845;BMP280;48929;47.910;20.390;2023-03-20T18:21:21;99316.28;;;8.71
62845;BMP280;48929;47.910;20.390;2023-03-20T18:23:49;99325.81;;;8.61
62845;BMP280;48929;47.910;20.390;2023-03-20T18:26:20;99328.66;;;8.49
62845;BMP280;48929;47.910;20.390;2023-03-20T18:28:52;99326.84;;;8.45
62845;BMP280;48929;47.910;20.390;2023-03-20T18:31:24;99324.03;;;8.41
62845;BMP280;48929;47.910;20.390;2023-03-20T18:33:52;99329.69;;;8.38
62845;BMP280;48929;47.910;20.390;2023-03-20T18:36:22;99330.44;;;8.33
62845;BMP280;48929;47.910;20.390;2023-03-20T18:38:51;99323.50;;;8.24
62845;BMP280;48929;47.910;20.390;2023-03-20T18:41:22;99332.75;;;8.10
62845;BMP280;48929;47.910;20.390;2023-03-20T18:43:52;99326.56;;;8.00
62845;BMP280;48929;47.910;20.390;2023-03-20T18:46:24;99327.06;;;7.92
62845;BMP280;48929;47.910;20.390;2023-03-20T18:48:53;99327.56;;;7.89
62845;BMP280;48929;47.910;20.390;2023-03-20T18:51:22;99327.28;;;7.81
62845;BMP280;48929;47.910;20.390;2023-03-20T18:53:51;99324.72;;;7.71
62845;BMP280;48929;47.910;20.390;2023-03-20T18:56:24;99326.25;;;7.61
62845;BMP280;48929;47.910;20.390;2023-03-20T18:58:53;99319.03;;;7.53
62845;BMP280;48929;47.910;20.390;2023-03-20T19:01:22;99320.81;;;7.48
62845;BMP280;48929;47.910;20.390;2023-03-20T19:03:53;99317.72;;;7.41
62845;BMP280;48929;47.910;20.390;2023-03-20T19:06:22;99318.44;;;7.31
62845;BMP280;48929;47.910;20.390;2023-03-20T19:08:51;99322.50;;;7.22
62845;BMP280;48929;47.910;20.390;2023-03-20T19:11:20;99324.28;;;7.16
62845;BMP280;48929;47.910;20.390;2023-03-20T19:13:51;99326.03;;;7.11
62845;BMP280;48929;47.910;20.390;2023-03-20T19:16:22;99328.81;;;7.04
62845;BMP280;48929;47.910;20.390;2023-03-20T19:18:54;99323.38;;;6.96
62845;BMP280;48929;47.910;20.390;2023-03-20T19:21:24;99326.22;;;6.94
62845;BMP280;48929;47.910;20.390;2023-03-20T19:23:55;99323.84;;;6.88
62845;BMP280;48929;47.910;20.390;2023-03-20T19:26:27;99328.41;;;6.80
62845;BMP280;48929;47.910;20.390;2023-03-20T19:28:57;99324.00;;;6.76
62845;BMP280;48929;47.910;20.390;2023-03-20T19:31:27;99329.88;;;6.71
62845;BMP280;48929;47.910;20.390;2023-03-20T19:33:59;99330.34;;;6.63
62845;BMP280;48929;47.910;20.390;2023-03-20T19:36:30;99326.16;;;6.52
62845;BMP280;48929;47.910;20.390;2023-03-20T19:39:00;99329.72;;;6.46
62845;BMP280;48929;47.910;20.390;2023-03-20T19:41:30;99333.25;;;6.40
62845;BMP280;48929;47.910;20.390;2023-03-20T19:44:00;99338.38;;;6.40
62845;BMP280;48929;47.910;20.390;2023-03-20T19:46:28;99342.13;;;6.32
62845;BMP280;48929;47.910;20.390;2023-03-20T19:49:19;99335.16;;;6.23
62845;BMP280;48929;47.910;20.390;2023-03-20T19:51:56;99339.44;;;6.17
62845;BMP280;48929;47.910;20.390;2023-03-20T19:54:25;99339.63;;;6.11
62845;BMP280;48929;47.910;20.390;2023-03-20T19:56:54;99332.91;;;6.04
62845;BMP280;48929;47.910;20.390;2023-03-20T19:59:26;99339.28;;;6.02
62845;BMP280;48929;47.910;20.390;2023-03-20T20:01:58;99334.13;;;5.97
62845;BMP280;48929;47.910;20.390;2023-03-20T20:04:29;99330.97;;;5.90
62845;BMP280;48929;47.910;20.390;2023-03-20T20:06:57;99330.16;;;5.84
62845;BMP280;48929;47.910;20.390;2023-03-20T20:09:46;99322.41;;;5.79
62845;BMP280;48929;47.910;20.390;2023-03-20T20:12:15;99324.44;;;5.77
62845;BMP280;48929;47.910;20.390;2023-03-20T20:14:44;99321.56;;;5.73
62845;BMP280;48929;47.910;20.390;2023-03-20T20:17:13;99324.88;;;5.69
62845;BMP280;48929;47.910;20.390;2023-03-20T20:19:43;99326.94;;;5.72
62845;BMP280;48929;47.910;20.390;2023-03-20T20:22:13;99320.31;;;5.76
62845;BMP280;48929;47.910;20.390;2023-03-20T20:24:52;99327.75;;;5.78
62845;BMP280;48929;47.910;20.390;2023-03-20T20:27:21;99327.22;;;5.76
62845;BMP280;48929;47.910;20.390;2023-03-20T20:29:50;99325.13;;;5.67
62845;BMP280;48929;47.910;20.390;2023-03-20T20:32:22;99324.50;;;5.60
62845;BMP280;48929;47.910;20.390;2023-03-20T20:34:53;99325.00;;;5.57
62845;BMP280;48929;47.910;20.390;2023-03-20T20:37:43;99315.25;;;5.54
62845;BMP280;48929;47.910;20.390;2023-03-20T20:40:32;99317.47;;;5.51
62845;BMP280;48929;47.910;20.390;2023-03-20T20:43:01;99311.56;;;5.45
62845;BMP280;48929;47.910;20.390;2023-03-20T20:45:36;99320.41;;;5.38
62845;BMP280;48929;47.910;20.390;2023-03-20T20:48:05;99315.22;;;5.32
62845;BMP280;48929;47.910;20.390;2023-03-20T20:50:37;99314.13;;;5.28
62845;BMP280;48929;47.910;20.390;2023-03-20T20:53:06;99312.00;;;5.20
62845;BMP280;48929;47.910;20.390;2023-03-20T20:55:35;99313.25;;;5.18
62845;BMP280;48929;47.910;20.390;2023-03-20T20:58:04;99315.41;;;5.26
62845;BMP280;48929;47.910;20.390;2023-03-20T21:00:33;99312.13;;;5.30
62845;BMP280;48929;47.910;20.390;2023-03-20T21:03:16;99311.28;;;5.25
62845;BMP280;48929;47.910;20.390;2023-03-20T21:05:47;99311.16;;;5.15
62845;BMP280;48929;47.910;20.390;2023-03-20T21:08:15;99308.53;;;5.10
62845;BMP280;48929;47.910;20.390;2023-03-20T21:10:45;99315.91;;;5.06
62845;BMP280;48929;47.910;20.390;2023-03-20T21:13:14;99308.38;;;5.00
62845;BMP280;48929;47.910;20.390;2023-03-20T21:15:45;99300.91;;;4.93
62845;BMP280;48929;47.910;20.390;2023-03-20T21:18:14;99304.97;;;4.94
62845;BMP280;48929;47.910;20.390;2023-03-20T21:20:43;99296.81;;;4.92
62845;BMP280;48929;47.910;20.390;2023-03-20T21:23:13;99298.06;;;4.89
62845;BMP280;48929;47.910;20.390;2023-03-20T21:25:42;99299.97;;;4.82
62845;BMP280;48929;47.910;20.390;2023-03-20T21:28:14;99297.78;;;4.74
62845;BMP280;48929;47.910;20.390;2023-03-20T21:30:43;99297.75;;;4.69
62845;BMP280;48929;47.910;20.390;2023-03-20T21:33:33;99288.69;;;4.62
62845;BMP280;48929;47.910;20.390;2023-03-20T21:36:02;99293.47;;;4.58
62845;BMP280;48929;47.910;20.390;2023-03-20T21:38:33;99292.41;;;4.54
62845;BMP280;48929;47.910;20.390;2023-03-20T21:41:22;99294.88;;;4.49
62845;BMP280;48929;47.910;20.390;2023-03-20T21:43:51;99299.34;;;4.42
62845;BMP280;48929;47.910;20.390;2023-03-20T21:46:20;99299.59;;;4.40
62845;BMP280;48929;47.910;20.390;2023-03-20T21:49:10;99302.13;;;4.40
62845;BMP280;48929;47.910;20.390;2023-03-20T21:51:59;99299.28;;;4.37
62845;BMP280;48929;47.910;20.390;2023-03-20T21:54:49;99301.19;;;4.30
62845;BMP280;48929;47.910;20.390;2023-03-20T21:57:38;99297.22;;;4.22
62845;BMP280;48929;47.910;20.390;2023-03-20T22:00:27;99307.66;;;4.20
62845;BMP280;48929;47.910;20.390;2023-03-20T22:03:15;99307.31;;;4.17
62845;BMP280;48929;47.910;20.390;2023-03-20T22:06:06;99299.19;;;4.15
62845;BMP280;48929;47.910;20.390;2023-03-20T22:08:56;99300.84;;;4.09
62845;BMP280;48929;47.910;20.390;2023-03-20T22:11:46;99299.53;;;4.07
62845;BMP280;48929;47.910;20.390;2023-03-20T22:14:34;99299.75;;;4.05
62845;BMP280;48929;47.910;20.390;2023-03-20T22:17:23;99303.97;;;4.00
62845;BMP280;48929;47.910;20.390;2023-03-20T22:20:13;99309.75;;;3.95
62845;BMP280;48929;47.910;20.390;2023-03-20T22:23:01;99302.00;;;3.90
62845;BMP280;48929;47.910;20.390;2023-03-20T22:25:55;99304.81;;;3.89
62845;BMP280;48929;47.910;20.390;2023-03-20T22:28:46;99297.16;;;3.89
62845;BMP280;48929;47.910;20.390;2023-03-20T22:31:36;99292.28;;;3.87
62845;BMP280;48929;47.910;20.390;2023-03-20T22:34:25;99298.38;;;3.86
62845;BMP280;48929;47.910;20.390;2023-03-20T22:37:15;99298.38;;;3.86
62845;BMP280;48929;47.910;20.390;2023-03-20T22:40:04;99306.69;;;3.81
62845;BMP280;48929;47.910;20.390;2023-03-20T22:42:53;99299.06;;;3.81
62845;BMP280;48929;47.910;20.390;2023-03-20T22:45:45;99295.72;;;3.81
62845;BMP280;48929;47.910;20.390;2023-03-20T22:48:36;99294.84;;;3.87
62845;BMP280;48929;47.910;20.390;2023-03-20T22:51:06;99293.84;;;3.88
62845;BMP280;48929;47.910;20.390;2023-03-20T22:53:35;99296.38;;;3.88
62845;BMP280;48929;47.910;20.390;2023-03-20T22:56:04;99302.50;;;3.87
62845;BMP280;48929;47.910;20.390;2023-03-20T22:58:33;99298.38;;;3.86
62845;BMP280;48929;47.910;20.390;2023-03-20T23:01:04;99300.59;;;3.82